Ardmore Cherokee — V7HR9 — position and weather

sailwx.info

Track history (hours):
 
Tides and Currents Weather Stations Pressure Air Temp Water Temp Dewpoint Dewpoint Depression Visibility Wind Speed Wind Dir Waves Ship Positions

Ardmore Cherokee

Last reported at 2017-Dec-07 22:09 UTC. Time now 2017-Dec-15 02:42 UTC.
Position N 23°34' E 122°20'.

Length 159 m; draft 6.3 m.

Type: Ship (hazmat cat B). MMSI: 538005865.

Date/timePositionNaut miles runAvg speedWind from/ knotsBaromVisibWave heightAir tempDewpointWater temp
2017-Dec-07 22:09N 23°34' E 122°20'211.3
2017-Dec-07 22:00N 23°35' E 122°20'510.7
2017-Dec-07 21:30N 23°41' E 122°21'510.7
2017-Dec-07 21:00N 23°46' E 122°23'510.8
2017-Dec-07 20:30N 23°51' E 122°25'611.2
2017-Dec-07 20:00N 23°56' E 122°27'611.4
2017-Dec-07 19:30N 24°02' E 122°28'611.7
2017-Dec-07 19:00N 24°07' E 122°29'510.9
2017-Dec-07 18:30N 24°13' E 122°29'510.8
2017-Dec-07 18:00N 24°18' E 122°31'510.5
2017-Dec-07 17:30N 24°23' E 122°32'510.3
2017-Dec-07 17:00N 24°28' E 122°33'510.7
2017-Dec-07 16:30N 24°33' E 122°35'510.3
2017-Dec-07 16:00N 24°38' E 122°36'510.4
2017-Dec-07 15:30N 24°43' E 122°38'510.6
2017-Dec-07 15:01N 24°49' E 122°39'510.6
2017-Dec-07 14:30N 24°54' E 122°40'510.3
2017-Dec-07 14:00N 24°59' E 122°42'510.7
2017-Dec-07 13:31N 25°04' E 122°43'611.1
2017-Dec-07 13:00N 25°09' E 122°45'611.8
2017-Dec-07 12:30N 25°15' E 122°47'  
Track history (hours):
 
Tides and Currents Weather Stations Pressure Air Temp Water Temp Dewpoint Dewpoint Depression Visibility Wind Speed Wind Dir Waves Ship Positions

Ardmore Cherokee

Last reported at 2017-Dec-07 22:09 UTC. Time now 2017-Dec-15 02:42 UTC.
Position N 23°34' E 122°20'.

Length 159 m; draft 6.3 m.

Type: Ship (hazmat cat B). MMSI: 538005865.

Date/timePositionNaut miles runAvg speedWind from/ knotsBaromVisibWave heightAir tempDewpointWater temp
2017-Dec-07 22:09N 23°34' E 122°20'211.3
2017-Dec-07 22:00N 23°35' E 122°20'510.7
2017-Dec-07 21:30N 23°41' E 122°21'510.7
2017-Dec-07 21:00N 23°46' E 122°23'510.8
2017-Dec-07 20:30N 23°51' E 122°25'611.2
2017-Dec-07 20:00N 23°56' E 122°27'611.4
2017-Dec-07 19:30N 24°02' E 122°28'611.7
2017-Dec-07 19:00N 24°07' E 122°29'510.9
2017-Dec-07 18:30N 24°13' E 122°29'510.8
2017-Dec-07 18:00N 24°18' E 122°31'510.5
2017-Dec-07 17:30N 24°23' E 122°32'510.3
2017-Dec-07 17:00N 24°28' E 122°33'510.7
2017-Dec-07 16:30N 24°33' E 122°35'510.3
2017-Dec-07 16:00N 24°38' E 122°36'510.4
2017-Dec-07 15:30N 24°43' E 122°38'510.6
2017-Dec-07 15:01N 24°49' E 122°39'510.6
2017-Dec-07 14:30N 24°54' E 122°40'510.3
2017-Dec-07 14:00N 24°59' E 122°42'510.7
2017-Dec-07 13:31N 25°04' E 122°43'611.1
2017-Dec-07 13:00N 25°09' E 122°45'611.8
2017-Dec-07 12:30N 25°15' E 122°47'  

Dump ship's entire track history